AirNav   TITAN Aviation Fuels
 
 1069 users online  

01WA Willapa Harbor Heliport
South Bend, Washington, USA

GOING TO SOUTH BEND?


FAA INFORMATION EFFECTIVE 07 OCTOBER 2021

Location

FAA Identifier: 01WA
Lat/Long: 46-39-47.3570N 123-48-43.5820W
46-39.789283N 123-48.726367W
46.6631547,-123.8121061
(estimated)
Elevation: 154 ft. / 47 m (estimated)
Variation: 16E (2020)
Time zone: UTC -7 (UTC -8 during Standard Time)
Zip code: 98586

Heliport Operations

Heliport use: Private use, MEDICAL USE.
Activation date: 03/1976
Control tower: no
ARTCC: SEATTLE CENTER
FSS: SEATTLE FLIGHT SERVICE STATION
NOTAMs facility: FDC (NOTAM-D service not available)
Attendance: UNATNDD
Wind indicator: yes
Segmented circle: no

Heliport Communications

WX ASOS at HQM (19 nm N): 135.775 (360-538-7021)

Nearby radio navigation aids

VOR radial/distance  VOR name  Freq  Var
HQMr122/22.0HOQUIAM VORTAC117.7019E
ASTr350/30.2ASTORIA VOR/DME114.0015E

Heliport Services

Runway Information

Helipad H1

Dimensions: 40 x 40 ft. / 12 x 12 m
Surface: concrete, in fair condition
Latitude: 46-39.789283N
Longitude: 123-48.726367W
Elevation: 154.0 ft.
Traffic pattern: leftleft
Markings: none, in fair condition

Heliport Ownership and Management from official FAA records

Ownership: Privately-owned
Owner: WILLAPA HARBOR HOSPITAL
800 ALDER ST
SOUTH BEND, WA 98586
Phone 360-875-5526
Manager: GARY SPOOR
800 ALDER ST
SOUTH BEND, WA 98586
Phone 360-875-4509

Additional Remarks

A52-H1 50 FT TREES 300 FT WEST.
FOR CD CTC SEATTLE ARTCC AT 253-351-3694.

Instrument Procedures

There are no published instrument procedures at 01WA.

Some nearby airports with instrument procedures:

KHQM - Bowerman Airport (19 nm N)
KAST - Astoria Regional Airport (30 nm S)
KCLS - Chehalis-Centralia Airport (34 nm E)
KOLM - Olympia Regional Airport (42 nm NE)
KTDO - Ed Carlson Memorial Field - South Lewis County Airport (43 nm E)
 
Loc | Ops | Rwys | IFR | FBO | Links
Com | Nav | Svcs | Stats | Notes
Area around 01WA (Willapa Harbor Heliport)
 
Road maps at: MapQuest Bing Google
 
Aerial photo
No photo
 
Sectional chart

 
Airport distance calculator
Flying to Willapa Harbor Heliport? Find the distance to fly.

From to 01WA

Sunrise and sunset
Times for 18-Oct-2021
 Local
(UTC-7)
 Zulu
(UTC)
Morning civil twilight07:0814:08
Sunrise07:3814:38
Sunset18:2301:23
Evening civil twilight18:5301:53

Current date and time
Zulu (UTC)  18-Oct-2021 13:13:20
Local (UTC-7)  18-Oct-2021 06:13:20
 
METAR
KHQM 
19nm N 
181253Z AUTO 00000KT 9SM CLR 06/04 A2994 RMK AO2 SLP140 T00560039 $
KAST 
31nm S 
181255Z AUTO 12003KT 10SM BKN032 06/05 A2993 RMK AO2 VIS 2 RWY 08 SLP136 T00560050
KCLS 
34nm E 
181255Z AUTO 00000KT 7SM BKN011 OVC021 08/08 A2993 RMK AO2
TAF
KHQM 
19nm N 
181126Z 1812/1912 VRB04KT P6SM SCT030 FM181600 09006KT P6SM SKC FM182300 16008KT P6SM FEW250 FM190500 06006KT P6SM SCT250
NOTAMs
Click for the latest NOTAMs
NOTAMs are issued by the DoD/FAA and will open in a separate window not controlled by AirNav.

 

 
 

Would you like to see your business listed on this page?

 If your business provides an interesting product or service to pilots, flight crews, aircraft, or users of the Willapa Harbor Heliport, you should consider listing it here.  To start the listing process, click on the button below
 
Add a business
 

Other Pages about Willapa Harbor Heliport

Update a link
 
Copyright © AirNav, LLC. All rights reserved. Privacy Policy  Contact